Terminal Aerodrome Forecast
Issued by NWS

Home | Current Version | Previous Version | Graphics & Text | Print | Product List | Glossary On
Versions: 1 2 3 4 5 6 7 8 9 10 11 12 13 14
000
FTUS43 KBIS 301131
TAFMOT
TAF
KMOT 301131Z 3012/0112 04007KT P6SM SKC
     FM301800 06015KT P6SM FEW050
     FM010300 02006KT P6SM SKC
     FM010900 31004KT P6SM SKC=

USA.gov is the U.S. government's official web portal to all federal, state and local government web resources and services.